sensor_id;sensor_type;location;lat;lon;timestamp;P1;durP1;ratioP1;P2;durP2;ratioP2
35993;SDS011;22066;54.274;18.578;2022-12-17T00:02:22;53.53;;;18.50;;
35993;SDS011;22066;54.274;18.578;2022-12-17T00:05:07;61.63;;;19.23;;
35993;SDS011;22066;54.274;18.578;2022-12-17T00:07:56;55.00;;;18.57;;
35993;SDS011;22066;54.274;18.578;2022-12-17T00:10:41;57.20;;;18.87;;
35993;SDS011;22066;54.274;18.578;2022-12-17T00:13:25;54.63;;;18.70;;
35993;SDS011;22066;54.274;18.578;2022-12-17T00:16:10;51.77;;;18.70;;
35993;SDS011;22066;54.274;18.578;2022-12-17T00:18:54;55.90;;;18.90;;
35993;SDS011;22066;54.274;18.578;2022-12-17T00:21:39;51.50;;;17.30;;
35993;SDS011;22066;54.274;18.578;2022-12-17T00:24:23;55.90;;;20.23;;
35993;SDS011;22066;54.274;18.578;2022-12-17T00:27:08;62.00;;;19.97;;
35993;SDS011;22066;54.274;18.578;2022-12-17T00:29:53;58.57;;;19.50;;
35993;SDS011;22066;54.274;18.578;2022-12-17T00:32:37;53.97;;;20.03;;
35993;SDS011;22066;54.274;18.578;2022-12-17T00:35:22;42.43;;;17.17;;
35993;SDS011;22066;54.274;18.578;2022-12-17T00:38:06;33.33;;;14.30;;
35993;SDS011;22066;54.274;18.578;2022-12-17T00:40:51;36.37;;;14.60;;
35993;SDS011;22066;54.274;18.578;2022-12-17T00:43:36;47.27;;;16.40;;
35993;SDS011;22066;54.274;18.578;2022-12-17T00:46:21;43.70;;;15.00;;
35993;SDS011;22066;54.274;18.578;2022-12-17T00:49:06;47.50;;;14.60;;
35993;SDS011;22066;54.274;18.578;2022-12-17T00:51:50;38.40;;;13.50;;
35993;SDS011;22066;54.274;18.578;2022-12-17T00:54:35;42.40;;;16.20;;
35993;SDS011;22066;54.274;18.578;2022-12-17T00:57:19;40.67;;;14.67;;
35993;SDS011;22066;54.274;18.578;2022-12-17T01:00:04;48.73;;;15.20;;
35993;SDS011;22066;54.274;18.578;2022-12-17T01:02:49;46.43;;;15.47;;
35993;SDS011;22066;54.274;18.578;2022-12-17T01:05:33;53.57;;;17.53;;
35993;SDS011;22066;54.274;18.578;2022-12-17T01:08:18;44.20;;;15.53;;
35993;SDS011;22066;54.274;18.578;2022-12-17T01:11:04;49.70;;;16.07;;
35993;SDS011;22066;54.274;18.578;2022-12-17T01:13:49;41.60;;;15.37;;
35993;SDS011;22066;54.274;18.578;2022-12-17T01:16:34;48.23;;;15.33;;
35993;SDS011;22066;54.274;18.578;2022-12-17T01:19:18;46.67;;;16.27;;
35993;SDS011;22066;54.274;18.578;2022-12-17T01:22:03;48.07;;;14.47;;
35993;SDS011;22066;54.274;18.578;2022-12-17T01:24:48;42.27;;;13.27;;
35993;SDS011;22066;54.274;18.578;2022-12-17T01:27:33;45.70;;;15.90;;
35993;SDS011;22066;54.274;18.578;2022-12-17T01:30:17;39.27;;;13.67;;
35993;SDS011;22066;54.274;18.578;2022-12-17T01:33:03;43.53;;;13.80;;
35993;SDS011;22066;54.274;18.578;2022-12-17T01:35:47;47.77;;;17.50;;
35993;SDS011;22066;54.274;18.578;2022-12-17T01:38:32;44.93;;;14.17;;
35993;SDS011;22066;54.274;18.578;2022-12-17T01:41:17;45.80;;;13.40;;
35993;SDS011;22066;54.274;18.578;2022-12-17T01:47:06;39.73;;;13.80;;
35993;SDS011;22066;54.274;18.578;2022-12-17T01:49:52;39.33;;;14.07;;
35993;SDS011;22066;54.274;18.578;2022-12-17T01:52:36;34.43;;;12.83;;
35993;SDS011;22066;54.274;18.578;2022-12-17T01:55:22;49.20;;;14.07;;
35993;SDS011;22066;54.274;18.578;2022-12-17T01:58:06;50.97;;;13.83;;
35993;SDS011;22066;54.274;18.578;2022-12-17T02:00:51;33.20;;;10.53;;
35993;SDS011;22066;54.274;18.578;2022-12-17T02:03:35;29.23;;;9.80;;
35993;SDS011;22066;54.274;18.578;2022-12-17T02:06:22;34.30;;;11.07;;
35993;SDS011;22066;54.274;18.578;2022-12-17T02:11:58;32.53;;;9.80;;
35993;SDS011;22066;54.274;18.578;2022-12-17T02:15:09;25.07;;;8.87;;
35993;SDS011;22066;54.274;18.578;2022-12-17T02:17:54;29.20;;;9.03;;
35993;SDS011;22066;54.274;18.578;2022-12-17T02:20:45;34.50;;;9.73;;
35993;SDS011;22066;54.274;18.578;2022-12-17T02:26:36;36.50;;;9.27;;
35993;SDS011;22066;54.274;18.578;2022-12-17T02:29:22;33.63;;;10.53;;
35993;SDS011;22066;54.274;18.578;2022-12-17T02:32:09;26.70;;;7.85;;
35993;SDS011;22066;54.274;18.578;2022-12-17T02:34:55;37.63;;;10.37;;
35993;SDS011;22066;54.274;18.578;2022-12-17T02:37:46;36.53;;;10.97;;
35993;SDS011;22066;54.274;18.578;2022-12-17T02:40:31;37.47;;;12.47;;
35993;SDS011;22066;54.274;18.578;2022-12-17T02:43:17;31.07;;;10.13;;
35993;SDS011;22066;54.274;18.578;2022-12-17T02:46:02;33.17;;;9.97;;
35993;SDS011;22066;54.274;18.578;2022-12-17T02:48:47;34.67;;;9.67;;
35993;SDS011;22066;54.274;18.578;2022-12-17T02:51:32;44.10;;;12.80;;
35993;SDS011;22066;54.274;18.578;2022-12-17T02:54:17;31.70;;;9.33;;
35993;SDS011;22066;54.274;18.578;2022-12-17T02:57:02;31.87;;;9.77;;
35993;SDS011;22066;54.274;18.578;2022-12-17T02:59:46;35.57;;;10.97;;
35993;SDS011;22066;54.274;18.578;2022-12-17T03:02:31;41.80;;;11.97;;
35993;SDS011;22066;54.274;18.578;2022-12-17T03:05:15;33.00;;;11.03;;
35993;SDS011;22066;54.274;18.578;2022-12-17T03:08:00;49.00;;;11.27;;
35993;SDS011;22066;54.274;18.578;2022-12-17T03:10:44;44.40;;;12.37;;
35993;SDS011;22066;54.274;18.578;2022-12-17T03:13:29;39.00;;;11.57;;
35993;SDS011;22066;54.274;18.578;2022-12-17T03:16:15;39.77;;;11.37;;
35993;SDS011;22066;54.274;18.578;2022-12-17T03:19:00;41.47;;;12.03;;
35993;SDS011;22066;54.274;18.578;2022-12-17T03:21:45;40.10;;;11.43;;
35993;SDS011;22066;54.274;18.578;2022-12-17T03:24:29;44.20;;;12.17;;
35993;SDS011;22066;54.274;18.578;2022-12-17T03:27:14;38.40;;;10.43;;
35993;SDS011;22066;54.274;18.578;2022-12-17T03:29:59;37.27;;;11.07;;
35993;SDS011;22066;54.274;18.578;2022-12-17T03:32:44;43.40;;;12.43;;
35993;SDS011;22066;54.274;18.578;2022-12-17T03:35:28;32.43;;;11.00;;
35993;SDS011;22066;54.274;18.578;2022-12-17T03:38:13;40.00;;;11.23;;
35993;SDS011;22066;54.274;18.578;2022-12-17T03:40:58;47.60;;;10.93;;
35993;SDS011;22066;54.274;18.578;2022-12-17T03:43:42;32.33;;;9.87;;
35993;SDS011;22066;54.274;18.578;2022-12-17T03:46:27;44.70;;;11.67;;
35993;SDS011;22066;54.274;18.578;2022-12-17T03:49:11;40.37;;;11.67;;
35993;SDS011;22066;54.274;18.578;2022-12-17T03:51:56;35.23;;;10.30;;
35993;SDS011;22066;54.274;18.578;2022-12-17T03:54:41;40.10;;;10.77;;
35993;SDS011;22066;54.274;18.578;2022-12-17T03:57:25;44.43;;;13.87;;
35993;SDS011;22066;54.274;18.578;2022-12-17T04:00:10;48.07;;;11.37;;
35993;SDS011;22066;54.274;18.578;2022-12-17T04:02:55;40.87;;;12.33;;
35993;SDS011;22066;54.274;18.578;2022-12-17T04:05:39;43.20;;;12.87;;
35993;SDS011;22066;54.274;18.578;2022-12-17T04:08:24;50.13;;;12.73;;
35993;SDS011;22066;54.274;18.578;2022-12-17T04:11:09;47.13;;;12.07;;
35993;SDS011;22066;54.274;18.578;2022-12-17T04:13:53;48.70;;;13.57;;
35993;SDS011;22066;54.274;18.578;2022-12-17T04:16:37;64.20;;;14.60;;
35993;SDS011;22066;54.274;18.578;2022-12-17T04:19:22;54.73;;;14.57;;
35993;SDS011;22066;54.274;18.578;2022-12-17T04:22:06;40.43;;;11.97;;
35993;SDS011;22066;54.274;18.578;2022-12-17T04:24:51;50.20;;;15.10;;
35993;SDS011;22066;54.274;18.578;2022-12-17T04:27:36;46.13;;;13.50;;
35993;SDS011;22066;54.274;18.578;2022-12-17T04:30:20;37.10;;;13.20;;
35993;SDS011;22066;54.274;18.578;2022-12-17T04:33:05;54.03;;;13.30;;
35993;SDS011;22066;54.274;18.578;2022-12-17T04:35:49;45.77;;;11.77;;
35993;SDS011;22066;54.274;18.578;2022-12-17T04:38:34;50.10;;;14.33;;
35993;SDS011;22066;54.274;18.578;2022-12-17T04:41:19;43.70;;;11.27;;
35993;SDS011;22066;54.274;18.578;2022-12-17T04:44:04;30.70;;;10.27;;
35993;SDS011;22066;54.274;18.578;2022-12-17T04:46:49;34.37;;;10.77;;
35993;SDS011;22066;54.274;18.578;2022-12-17T04:49:33;34.27;;;11.10;;
35993;SDS011;22066;54.274;18.578;2022-12-17T04:52:18;33.63;;;10.87;;
35993;SDS011;22066;54.274;18.578;2022-12-17T04:55:03;50.57;;;14.83;;
35993;SDS011;22066;54.274;18.578;2022-12-17T04:57:47;59.40;;;17.93;;
35993;SDS011;22066;54.274;18.578;2022-12-17T05:00:32;67.23;;;18.77;;
35993;SDS011;22066;54.274;18.578;2022-12-17T05:03:16;62.27;;;17.37;;
35993;SDS011;22066;54.274;18.578;2022-12-17T05:06:01;61.37;;;16.17;;
35993;SDS011;22066;54.274;18.578;2022-12-17T05:08:45;65.43;;;14.83;;
35993;SDS011;22066;54.274;18.578;2022-12-17T05:11:30;68.17;;;18.47;;
35993;SDS011;22066;54.274;18.578;2022-12-17T05:14:15;61.43;;;14.03;;
35993;SDS011;22066;54.274;18.578;2022-12-17T05:17:00;61.93;;;15.50;;
35993;SDS011;22066;54.274;18.578;2022-12-17T05:19:44;68.03;;;16.17;;
35993;SDS011;22066;54.274;18.578;2022-12-17T05:22:29;73.60;;;19.43;;
35993;SDS011;22066;54.274;18.578;2022-12-17T05:25:14;58.07;;;16.33;;
35993;SDS011;22066;54.274;18.578;2022-12-17T05:27:58;67.27;;;16.50;;
35993;SDS011;22066;54.274;18.578;2022-12-17T05:30:49;59.27;;;18.20;;
35993;SDS011;22066;54.274;18.578;2022-12-17T05:33:34;71.30;;;18.57;;
35993;SDS011;22066;54.274;18.578;2022-12-17T05:36:19;56.97;;;17.47;;
35993;SDS011;22066;54.274;18.578;2022-12-17T05:39:04;78.57;;;21.07;;
35993;SDS011;22066;54.274;18.578;2022-12-17T05:41:56;72.50;;;19.20;;
35993;SDS011;22066;54.274;18.578;2022-12-17T05:44:41;70.50;;;19.63;;
35993;SDS011;22066;54.274;18.578;2022-12-17T05:47:25;70.83;;;18.90;;
35993;SDS011;22066;54.274;18.578;2022-12-17T05:50:10;65.87;;;17.27;;
35993;SDS011;22066;54.274;18.578;2022-12-17T05:53:04;80.30;;;18.63;;
35993;SDS011;22066;54.274;18.578;2022-12-17T05:55:52;70.77;;;16.67;;
35993;SDS011;22066;54.274;18.578;2022-12-17T06:01:21;77.03;;;17.40;;
35993;SDS011;22066;54.274;18.578;2022-12-17T06:04:06;85.67;;;20.20;;
35993;SDS011;22066;54.274;18.578;2022-12-17T06:06:50;87.73;;;23.07;;
35993;SDS011;22066;54.274;18.578;2022-12-17T06:09:35;83.20;;;25.07;;
35993;SDS011;22066;54.274;18.578;2022-12-17T06:12:19;104.47;;;28.13;;
35993;SDS011;22066;54.274;18.578;2022-12-17T06:15:04;110.73;;;24.90;;
35993;SDS011;22066;54.274;18.578;2022-12-17T06:17:53;93.37;;;24.17;;
35993;SDS011;22066;54.274;18.578;2022-12-17T06:20:38;76.10;;;21.80;;
35993;SDS011;22066;54.274;18.578;2022-12-17T06:23:22;79.40;;;21.40;;
35993;SDS011;22066;54.274;18.578;2022-12-17T06:26:07;83.17;;;21.43;;
35993;SDS011;22066;54.274;18.578;2022-12-17T06:28:51;89.37;;;22.67;;
35993;SDS011;22066;54.274;18.578;2022-12-17T06:31:36;76.40;;;20.53;;
35993;SDS011;22066;54.274;18.578;2022-12-17T06:34:21;82.37;;;21.07;;
35993;SDS011;22066;54.274;18.578;2022-12-17T06:37:05;80.53;;;21.30;;
35993;SDS011;22066;54.274;18.578;2022-12-17T06:39:50;87.37;;;20.00;;
35993;SDS011;22066;54.274;18.578;2022-12-17T06:42:34;77.83;;;18.27;;
35993;SDS011;22066;54.274;18.578;2022-12-17T06:45:19;75.47;;;20.00;;
35993;SDS011;22066;54.274;18.578;2022-12-17T06:48:05;83.67;;;17.83;;
35993;SDS011;22066;54.274;18.578;2022-12-17T06:50:51;81.43;;;21.30;;
35993;SDS011;22066;54.274;18.578;2022-12-17T06:53:37;56.35;;;14.43;;
35993;SDS011;22066;54.274;18.578;2022-12-17T06:56:21;63.53;;;16.60;;
35993;SDS011;22066;54.274;18.578;2022-12-17T06:59:06;48.03;;;15.53;;
35993;SDS011;22066;54.274;18.578;2022-12-17T07:01:50;54.23;;;15.27;;
35993;SDS011;22066;54.274;18.578;2022-12-17T07:04:35;54.10;;;12.60;;
35993;SDS011;22066;54.274;18.578;2022-12-17T07:07:19;49.77;;;14.43;;
35993;SDS011;22066;54.274;18.578;2022-12-17T07:10:04;72.53;;;20.23;;
35993;SDS011;22066;54.274;18.578;2022-12-17T07:12:49;75.63;;;20.57;;
35993;SDS011;22066;54.274;18.578;2022-12-17T07:15:34;63.13;;;18.23;;
35993;SDS011;22066;54.274;18.578;2022-12-17T07:18:18;59.13;;;16.93;;
35993;SDS011;22066;54.274;18.578;2022-12-17T07:21:03;63.40;;;17.87;;
35993;SDS011;22066;54.274;18.578;2022-12-17T07:23:48;57.43;;;16.37;;
35993;SDS011;22066;54.274;18.578;2022-12-17T07:26:32;58.23;;;17.47;;
35993;SDS011;22066;54.274;18.578;2022-12-17T07:29:17;51.23;;;14.20;;
35993;SDS011;22066;54.274;18.578;2022-12-17T07:32:01;42.07;;;11.87;;
35993;SDS011;22066;54.274;18.578;2022-12-17T07:34:46;40.37;;;12.07;;
35993;SDS011;22066;54.274;18.578;2022-12-17T07:37:31;28.90;;;11.13;;
35993;SDS011;22066;54.274;18.578;2022-12-17T07:40:15;37.73;;;10.10;;
35993;SDS011;22066;54.274;18.578;2022-12-17T07:43:00;32.17;;;10.00;;
35993;SDS011;22066;54.274;18.578;2022-12-17T07:45:44;38.63;;;10.13;;
35993;SDS011;22066;54.274;18.578;2022-12-17T07:48:29;25.63;;;8.47;;
35993;SDS011;22066;54.274;18.578;2022-12-17T07:51:13;33.50;;;9.33;;
35993;SDS011;22066;54.274;18.578;2022-12-17T07:53:58;25.13;;;8.67;;
35993;SDS011;22066;54.274;18.578;2022-12-17T07:56:43;25.30;;;8.83;;
35993;SDS011;22066;54.274;18.578;2022-12-17T07:59:27;24.60;;;8.17;;
35993;SDS011;22066;54.274;18.578;2022-12-17T08:02:12;24.60;;;8.17;;
35993;SDS011;22066;54.274;18.578;2022-12-17T08:04:56;23.83;;;8.37;;
35993;SDS011;22066;54.274;18.578;2022-12-17T08:07:41;22.07;;;8.73;;
35993;SDS011;22066;54.274;18.578;2022-12-17T08:10:25;23.87;;;8.30;;
35993;SDS011;22066;54.274;18.578;2022-12-17T08:13:10;23.40;;;7.57;;
35993;SDS011;22066;54.274;18.578;2022-12-17T08:15:55;22.00;;;7.73;;
35993;SDS011;22066;54.274;18.578;2022-12-17T08:18:39;20.17;;;8.73;;
35993;SDS011;22066;54.274;18.578;2022-12-17T08:21:24;25.43;;;8.60;;
35993;SDS011;22066;54.274;18.578;2022-12-17T08:24:09;24.77;;;7.93;;
35993;SDS011;22066;54.274;18.578;2022-12-17T08:26:53;25.23;;;8.73;;
35993;SDS011;22066;54.274;18.578;2022-12-17T08:29:38;26.53;;;10.53;;
35993;SDS011;22066;54.274;18.578;2022-12-17T08:32:22;23.73;;;7.87;;
35993;SDS011;22066;54.274;18.578;2022-12-17T08:35:07;16.97;;;6.33;;
35993;SDS011;22066;54.274;18.578;2022-12-17T08:37:52;15.63;;;6.47;;
35993;SDS011;22066;54.274;18.578;2022-12-17T08:40:36;17.20;;;6.20;;
35993;SDS011;22066;54.274;18.578;2022-12-17T08:43:21;18.63;;;6.70;;
35993;SDS011;22066;54.274;18.578;2022-12-17T08:46:05;20.23;;;7.13;;
35993;SDS011;22066;54.274;18.578;2022-12-17T08:48:50;16.77;;;6.87;;
35993;SDS011;22066;54.274;18.578;2022-12-17T08:51:35;14.50;;;6.03;;
35993;SDS011;22066;54.274;18.578;2022-12-17T08:54:19;18.70;;;6.27;;
35993;SDS011;22066;54.274;18.578;2022-12-17T08:57:04;21.63;;;7.43;;
35993;SDS011;22066;54.274;18.578;2022-12-17T08:59:48;22.30;;;9.33;;
35993;SDS011;22066;54.274;18.578;2022-12-17T09:02:33;25.03;;;8.43;;
35993;SDS011;22066;54.274;18.578;2022-12-17T09:05:17;22.23;;;7.33;;
35993;SDS011;22066;54.274;18.578;2022-12-17T09:08:03;20.40;;;7.77;;
35993;SDS011;22066;54.274;18.578;2022-12-17T09:10:48;21.57;;;8.87;;
35993;SDS011;22066;54.274;18.578;2022-12-17T09:13:33;18.30;;;7.43;;
35993;SDS011;22066;54.274;18.578;2022-12-17T09:16:18;18.17;;;7.17;;
35993;SDS011;22066;54.274;18.578;2022-12-17T09:19:03;24.57;;;7.30;;
35993;SDS011;22066;54.274;18.578;2022-12-17T09:21:48;16.67;;;6.13;;
35993;SDS011;22066;54.274;18.578;2022-12-17T09:24:33;17.07;;;7.03;;
35993;SDS011;22066;54.274;18.578;2022-12-17T09:27:17;15.60;;;5.90;;
35993;SDS011;22066;54.274;18.578;2022-12-17T09:30:03;17.37;;;7.03;;
35993;SDS011;22066;54.274;18.578;2022-12-17T09:32:56;19.70;;;6.43;;
35993;SDS011;22066;54.274;18.578;2022-12-17T09:35:40;13.70;;;6.57;;
35993;SDS011;22066;54.274;18.578;2022-12-17T09:38:25;23.73;;;6.40;;
35993;SDS011;22066;54.274;18.578;2022-12-17T09:44:03;14.15;;;5.65;;
35993;SDS011;22066;54.274;18.578;2022-12-17T09:49:43;24.43;;;8.80;;
35993;SDS011;22066;54.274;18.578;2022-12-17T09:52:30;22.63;;;9.87;;
35993;SDS011;22066;54.274;18.578;2022-12-17T09:55:33;25.60;;;10.20;;
35993;SDS011;22066;54.274;18.578;2022-12-17T09:58:22;23.53;;;9.80;;
35993;SDS011;22066;54.274;18.578;2022-12-17T10:01:14;33.60;;;11.87;;
35993;SDS011;22066;54.274;18.578;2022-12-17T10:03:59;29.70;;;11.60;;
35993;SDS011;22066;54.274;18.578;2022-12-17T10:06:45;32.77;;;12.07;;
35993;SDS011;22066;54.274;18.578;2022-12-17T10:09:29;28.70;;;12.23;;
35993;SDS011;22066;54.274;18.578;2022-12-17T10:12:16;34.43;;;14.37;;
35993;SDS011;22066;54.274;18.578;2022-12-17T10:15:01;31.80;;;13.00;;
35993;SDS011;22066;54.274;18.578;2022-12-17T10:17:46;42.50;;;14.67;;
35993;SDS011;22066;54.274;18.578;2022-12-17T10:20:37;39.63;;;14.57;;
35993;SDS011;22066;54.274;18.578;2022-12-17T10:23:27;44.07;;;15.50;;
35993;SDS011;22066;54.274;18.578;2022-12-17T10:26:16;34.30;;;14.43;;
35993;SDS011;22066;54.274;18.578;2022-12-17T10:29:08;35.93;;;14.50;;
35993;SDS011;22066;54.274;18.578;2022-12-17T10:31:53;35.27;;;14.90;;
35993;SDS011;22066;54.274;18.578;2022-12-17T10:34:39;45.67;;;16.33;;
35993;SDS011;22066;54.274;18.578;2022-12-17T10:37:28;38.37;;;15.57;;
35993;SDS011;22066;54.274;18.578;2022-12-17T10:40:28;33.57;;;14.47;;
35993;SDS011;22066;54.274;18.578;2022-12-17T10:46:08;44.57;;;16.00;;
35993;SDS011;22066;54.274;18.578;2022-12-17T10:49:11;44.00;;;16.83;;
35993;SDS011;22066;54.274;18.578;2022-12-17T10:52:04;47.43;;;17.57;;
35993;SDS011;22066;54.274;18.578;2022-12-17T10:54:53;39.93;;;16.30;;
35993;SDS011;22066;54.274;18.578;2022-12-17T10:57:39;45.40;;;18.07;;
35993;SDS011;22066;54.274;18.578;2022-12-17T11:00:35;40.23;;;15.70;;
35993;SDS011;22066;54.274;18.578;2022-12-17T11:03:37;40.40;;;17.37;;
35993;SDS011;22066;54.274;18.578;2022-12-17T11:06:34;40.60;;;16.70;;
35993;SDS011;22066;54.274;18.578;2022-12-17T11:12:04;40.87;;;15.87;;
35993;SDS011;22066;54.274;18.578;2022-12-17T11:14:51;43.77;;;16.60;;
35993;SDS011;22066;54.274;18.578;2022-12-17T11:17:36;37.90;;;16.70;;
35993;SDS011;22066;54.274;18.578;2022-12-17T11:20:23;42.93;;;14.23;;
35993;SDS011;22066;54.274;18.578;2022-12-17T11:23:12;43.30;;;16.30;;
35993;SDS011;22066;54.274;18.578;2022-12-17T11:26:00;39.07;;;16.00;;
35993;SDS011;22066;54.274;18.578;2022-12-17T11:37:42;42.53;;;18.27;;
35993;SDS011;22066;54.274;18.578;2022-12-17T11:40:34;39.40;;;16.37;;
35993;SDS011;22066;54.274;18.578;2022-12-17T11:46:08;43.47;;;15.80;;
35993;SDS011;22066;54.274;18.578;2022-12-17T11:49:10;39.13;;;14.97;;
35993;SDS011;22066;54.274;18.578;2022-12-17T11:54:51;36.70;;;13.93;;
35993;SDS011;22066;54.274;18.578;2022-12-17T12:00:47;35.50;;;14.90;;
35993;SDS011;22066;54.274;18.578;2022-12-17T12:03:44;37.33;;;15.03;;
35993;SDS011;22066;54.274;18.578;2022-12-17T12:09:42;39.07;;;15.53;;
35993;SDS011;22066;54.274;18.578;2022-12-17T12:12:33;30.77;;;12.97;;
35993;SDS011;22066;54.274;18.578;2022-12-17T12:26:45;38.93;;;14.60;;
35993;SDS011;22066;54.274;18.578;2022-12-17T12:35:04;47.10;;;16.43;;
35993;SDS011;22066;54.274;18.578;2022-12-17T12:37:51;31.50;;;12.75;;
35993;SDS011;22066;54.274;18.578;2022-12-17T12:40:45;42.60;;;15.17;;
35993;SDS011;22066;54.274;18.578;2022-12-17T12:43:34;38.53;;;14.73;;
35993;SDS011;22066;54.274;18.578;2022-12-17T12:46:43;38.10;;;14.10;;
35993;SDS011;22066;54.274;18.578;2022-12-17T12:52:30;51.03;;;16.37;;
35993;SDS011;22066;54.274;18.578;2022-12-17T12:55:15;48.10;;;17.00;;
35993;SDS011;22066;54.274;18.578;2022-12-17T12:58:04;42.10;;;16.17;;
35993;SDS011;22066;54.274;18.578;2022-12-17T13:14:17;60.83;;;20.83;;
35993;SDS011;22066;54.274;18.578;2022-12-17T13:16:55;51.85;;;19.80;;
35993;SDS011;22066;54.274;18.578;2022-12-17T13:21:51;48.33;;;16.70;;
35993;SDS011;22066;54.274;18.578;2022-12-17T13:24:24;57.63;;;17.83;;
35993;SDS011;22066;54.274;18.578;2022-12-17T13:26:50;46.93;;;17.40;;
35993;SDS011;22066;54.274;18.578;2022-12-17T13:29:19;45.73;;;17.37;;
35993;SDS011;22066;54.274;18.578;2022-12-17T13:34:30;47.80;;;17.47;;
35993;SDS011;22066;54.274;18.578;2022-12-17T13:37:06;46.23;;;17.47;;
35993;SDS011;22066;54.274;18.578;2022-12-17T13:39:38;45.47;;;16.10;;
35993;SDS011;22066;54.274;18.578;2022-12-17T13:42:24;46.13;;;16.97;;
35993;SDS011;22066;54.274;18.578;2022-12-17T13:44:52;48.03;;;17.73;;
35993;SDS011;22066;54.274;18.578;2022-12-17T13:47:22;37.70;;;15.60;;
35993;SDS011;22066;54.274;18.578;2022-12-17T13:49:52;43.77;;;16.10;;
35993;SDS011;22066;54.274;18.578;2022-12-17T13:52:19;45.80;;;16.87;;
35993;SDS011;22066;54.274;18.578;2022-12-17T13:54:46;43.13;;;16.67;;
35993;SDS011;22066;54.274;18.578;2022-12-17T13:57:13;47.17;;;16.70;;
35993;SDS011;22066;54.274;18.578;2022-12-17T13:59:40;48.25;;;17.15;;
35993;SDS011;22066;54.274;18.578;2022-12-17T14:02:20;43.00;;;16.57;;
35993;SDS011;22066;54.274;18.578;2022-12-17T14:04:50;43.30;;;16.60;;
35993;SDS011;22066;54.274;18.578;2022-12-17T14:07:17;45.50;;;14.93;;
35993;SDS011;22066;54.274;18.578;2022-12-17T14:09:44;40.73;;;16.13;;
35993;SDS011;22066;54.274;18.578;2022-12-17T14:12:11;47.00;;;16.17;;
35993;SDS011;22066;54.274;18.578;2022-12-17T14:15:10;53.97;;;15.83;;
35993;SDS011;22066;54.274;18.578;2022-12-17T14:22:34;45.07;;;16.10;;
35993;SDS011;22066;54.274;18.578;2022-12-17T14:25:02;37.67;;;17.70;;
35993;SDS011;22066;54.274;18.578;2022-12-17T14:27:33;40.87;;;16.27;;
35993;SDS011;22066;54.274;18.578;2022-12-17T14:30:00;42.00;;;16.60;;
35993;SDS011;22066;54.274;18.578;2022-12-17T14:32:33;50.40;;;17.90;;
35993;SDS011;22066;54.274;18.578;2022-12-17T14:34:59;38.90;;;17.50;;
35993;SDS011;22066;54.274;18.578;2022-12-17T14:37:26;40.30;;;16.60;;
35993;SDS011;22066;54.274;18.578;2022-12-17T14:39:53;45.33;;;16.37;;
35993;SDS011;22066;54.274;18.578;2022-12-17T14:42:20;47.63;;;16.17;;
35993;SDS011;22066;54.274;18.578;2022-12-17T14:48:19;54.07;;;19.47;;
35993;SDS011;22066;54.274;18.578;2022-12-17T14:50:38;49.17;;;16.53;;
35993;SDS011;22066;54.274;18.578;2022-12-17T14:53:25;37.13;;;15.50;;
35993;SDS011;22066;54.274;18.578;2022-12-17T14:55:57;48.73;;;16.53;;
35993;SDS011;22066;54.274;18.578;2022-12-17T14:58:24;46.10;;;15.77;;
35993;SDS011;22066;54.274;18.578;2022-12-17T15:03:32;44.90;;;15.43;;
35993;SDS011;22066;54.274;18.578;2022-12-17T15:06:00;44.63;;;16.20;;
35993;SDS011;22066;54.274;18.578;2022-12-17T15:08:32;38.28;;;15.32;;
35993;SDS011;22066;54.274;18.578;2022-12-17T15:10:59;42.50;;;16.43;;
35993;SDS011;22066;54.274;18.578;2022-12-17T15:13:25;36.90;;;14.60;;
35993;SDS011;22066;54.274;18.578;2022-12-17T15:15:51;39.23;;;16.20;;
35993;SDS011;22066;54.274;18.578;2022-12-17T15:18:18;44.20;;;15.33;;
35993;SDS011;22066;54.274;18.578;2022-12-17T15:20:45;44.37;;;15.47;;
35993;SDS011;22066;54.274;18.578;2022-12-17T15:23:14;33.90;;;14.23;;
35993;SDS011;22066;54.274;18.578;2022-12-17T15:25:40;37.83;;;14.50;;
35993;SDS011;22066;54.274;18.578;2022-12-17T15:28:07;40.50;;;15.03;;
35993;SDS011;22066;54.274;18.578;2022-12-17T15:30:33;39.97;;;13.97;;
35993;SDS011;22066;54.274;18.578;2022-12-17T15:32:59;37.57;;;14.20;;
35993;SDS011;22066;54.274;18.578;2022-12-17T15:35:27;34.72;;;12.45;;
35993;SDS011;22066;54.274;18.578;2022-12-17T15:37:53;35.17;;;15.47;;
35993;SDS011;22066;54.274;18.578;2022-12-17T15:40:19;40.17;;;15.40;;
35993;SDS011;22066;54.274;18.578;2022-12-17T15:42:45;44.43;;;15.20;;
35993;SDS011;22066;54.274;18.578;2022-12-17T15:45:30;43.13;;;15.23;;
35993;SDS011;22066;54.274;18.578;2022-12-17T15:47:57;43.93;;;17.70;;
35993;SDS011;22066;54.274;18.578;2022-12-17T15:50:23;40.80;;;16.00;;
35993;SDS011;22066;54.274;18.578;2022-12-17T15:52:53;40.10;;;15.87;;
35993;SDS011;22066;54.274;18.578;2022-12-17T15:55:19;37.13;;;14.47;;
35993;SDS011;22066;54.274;18.578;2022-12-17T15:57:45;54.37;;;17.97;;
35993;SDS011;22066;54.274;18.578;2022-12-17T16:00:12;46.20;;;15.63;;
35993;SDS011;22066;54.274;18.578;2022-12-17T16:02:39;37.80;;;14.93;;
35993;SDS011;22066;54.274;18.578;2022-12-17T16:05:05;35.33;;;14.67;;
35993;SDS011;22066;54.274;18.578;2022-12-17T16:07:31;43.43;;;16.20;;
35993;SDS011;22066;54.274;18.578;2022-12-17T16:09:57;50.27;;;17.17;;
35993;SDS011;22066;54.274;18.578;2022-12-17T16:12:24;33.87;;;13.00;;
35993;SDS011;22066;54.274;18.578;2022-12-17T16:14:50;33.67;;;13.53;;
35993;SDS011;22066;54.274;18.578;2022-12-17T16:17:16;37.53;;;13.13;;
35993;SDS011;22066;54.274;18.578;2022-12-17T16:19:42;36.83;;;12.23;;
35993;SDS011;22066;54.274;18.578;2022-12-17T16:22:10;30.85;;;11.15;;
35993;SDS011;22066;54.274;18.578;2022-12-17T16:24:36;34.17;;;12.90;;
35993;SDS011;22066;54.274;18.578;2022-12-17T16:27:02;30.67;;;11.13;;
35993;SDS011;22066;54.274;18.578;2022-12-17T16:29:28;30.37;;;13.30;;
35993;SDS011;22066;54.274;18.578;2022-12-17T16:31:54;34.27;;;12.00;;
35993;SDS011;22066;54.274;18.578;2022-12-17T16:34:20;28.77;;;11.07;;
35993;SDS011;22066;54.274;18.578;2022-12-17T16:36:46;31.63;;;13.60;;
35993;SDS011;22066;54.274;18.578;2022-12-17T16:39:13;37.13;;;11.77;;
35993;SDS011;22066;54.274;18.578;2022-12-17T16:41:40;20.63;;;7.75;;
35993;SDS011;22066;54.274;18.578;2022-12-17T16:44:06;32.07;;;11.47;;
35993;SDS011;22066;54.274;18.578;2022-12-17T16:46:34;30.20;;;11.77;;
35993;SDS011;22066;54.274;18.578;2022-12-17T16:49:04;28.97;;;11.00;;
35993;SDS011;22066;54.274;18.578;2022-12-17T16:51:31;41.80;;;12.83;;
35993;SDS011;22066;54.274;18.578;2022-12-17T16:53:57;33.90;;;13.10;;
35993;SDS011;22066;54.274;18.578;2022-12-17T16:56:24;33.53;;;12.37;;
35993;SDS011;22066;54.274;18.578;2022-12-17T16:58:52;42.17;;;14.27;;
35993;SDS011;22066;54.274;18.578;2022-12-17T17:01:19;33.33;;;13.27;;
35993;SDS011;22066;54.274;18.578;2022-12-17T17:03:53;28.60;;;9.90;;
35993;SDS011;22066;54.274;18.578;2022-12-17T17:06:20;40.17;;;15.37;;
35993;SDS011;22066;54.274;18.578;2022-12-17T17:08:47;40.00;;;13.77;;